createdAt,value
2022-12-16T00:00:41.566Z,92.76
2022-12-16T00:01:43.633Z,291.64
2022-12-16T00:02:45.612Z,130.11
2022-12-16T00:03:51.837Z,130.12
2022-12-16T00:04:54.114Z,95.52
2022-12-16T00:05:56.119Z,61.58
2022-12-16T00:06:58.338Z,96.14
2022-12-16T00:08:00.216Z,109.19
2022-12-16T00:09:02.437Z,62.18
2022-12-16T00:10:06.229Z,78.77
2022-12-16T00:11:09.058Z,51.19
2022-12-16T00:12:10.947Z,85.19
2022-12-16T00:13:12.820Z,60.08
2022-12-16T00:14:15.324Z,88.22
2022-12-16T00:15:17.208Z,110.73
2022-12-16T00:16:20.959Z,71.63
2022-12-16T00:17:23.358Z,88.64
2022-12-16T00:18:25.648Z,54.13
2022-12-16T00:19:27.548Z,79.45
2022-12-16T00:20:29.693Z,96.15
2022-12-16T00:21:31.716Z,95.95
2022-12-16T00:22:33.607Z,279.07
2022-12-16T00:23:37.672Z,257.12
2022-12-16T00:24:39.625Z,165.20
2022-12-16T00:25:43.539Z,82.47
2022-12-16T00:26:45.660Z,77.02
2022-12-16T00:27:47.548Z,67.77
2022-12-16T00:28:49.742Z,55.56
2022-12-16T00:29:54.716Z,62.78
2022-12-16T00:30:58.978Z,53.12
2022-12-16T00:32:01.085Z,47.17
2022-12-16T00:33:04.187Z,51.21
2022-12-16T00:34:06.227Z,43.94
2022-12-16T00:35:08.800Z,52.35
2022-12-16T00:36:13.654Z,46.25
2022-12-16T00:37:15.586Z,36.09
2022-12-16T00:38:18.102Z,43.39
2022-12-16T00:39:20.109Z,53.66
2022-12-16T00:40:22.488Z,97.27
2022-12-16T00:41:24.390Z,95.11
2022-12-16T00:42:26.253Z,105.61
2022-12-16T00:43:28.288Z,74.46
2022-12-16T00:44:30.244Z,76.37
2022-12-16T00:45:32.330Z,106.89
2022-12-16T00:46:34.530Z,72.57
2022-12-16T00:47:42.528Z,47.48
2022-12-16T00:48:43.306Z,53.06
2022-12-16T00:49:45.201Z,59.79
2022-12-16T00:50:50.146Z,38.29
2022-12-16T00:51:58.864Z,56.63
2022-12-16T00:53:01.325Z,46.23
2022-12-16T00:54:03.455Z,48.86
2022-12-16T00:55:07.846Z,54.38
2022-12-16T00:56:13.792Z,59.58
2022-12-16T00:57:15.711Z,49.73
2022-12-16T00:58:19.032Z,52.67
2022-12-16T00:59:21.176Z,60.41
2022-12-16T01:00:23.913Z,77.02
2022-12-16T01:01:25.882Z,60.23
2022-12-16T01:02:28.092Z,126.50
2022-12-16T01:03:30.785Z,71.30
2022-12-16T01:04:32.797Z,103.94
2022-12-16T01:05:37.648Z,108.58
2022-12-16T01:06:39.773Z,245.44
2022-12-16T01:07:42.949Z,236.73
2022-12-16T01:08:44.985Z,113.52
2022-12-16T01:09:46.868Z,111.91
2022-12-16T01:10:55.341Z,121.62
2022-12-16T01:11:57.980Z,123.96
2022-12-16T01:13:00.816Z,190.59
2022-12-16T01:14:02.882Z,89.76
2022-12-16T01:15:06.632Z,58.09
2022-12-16T01:16:09.657Z,87.58
2022-12-16T01:17:11.629Z,140.53
2022-12-16T01:18:14.848Z,88.66
2022-12-16T01:19:16.844Z,133.02
2022-12-16T01:20:18.925Z,102.02
2022-12-16T01:21:20.796Z,93.55
2022-12-16T01:22:23.487Z,102.87
2022-12-16T01:23:25.388Z,90.38
2022-12-16T01:24:27.270Z,92.21
2022-12-16T01:25:29.445Z,97.06
2022-12-16T01:26:31.556Z,72.40
2022-12-16T01:27:33.425Z,105.35
2022-12-16T01:28:35.410Z,89.55
2022-12-16T01:29:37.481Z,95.37
2022-12-16T01:30:40.264Z,80.27
2022-12-16T01:31:42.181Z,70.48
2022-12-16T01:32:44.253Z,71.67
2022-12-16T01:33:47.071Z,52.02
2022-12-16T01:34:55.188Z,37.04
2022-12-16T01:36:00.851Z,45.83
2022-12-16T01:37:02.893Z,62.55
2022-12-16T01:38:05.883Z,45.51
2022-12-16T01:39:10.532Z,43.13
2022-12-16T01:40:19.624Z,42.43
2022-12-16T01:41:21.844Z,45.24
2022-12-16T01:42:23.949Z,46.81
2022-12-16T01:43:36.006Z,67.47
2022-12-16T01:44:40.327Z,47.53
2022-12-16T01:45:43.019Z,42.12
2022-12-16T01:46:51.698Z,38.90
2022-12-16T01:47:57.969Z,43.31
2022-12-16T01:49:03.647Z,62.35
2022-12-16T01:50:12.493Z,63.50
2022-12-16T01:51:24.170Z,45.34
2022-12-16T01:52:32.558Z,46.33
2022-12-16T01:53:37.164Z,44.38
2022-12-16T01:54:49.177Z,65.22
2022-12-16T01:55:54.057Z,47.19
2022-12-16T01:57:02.778Z,47.84
2022-12-16T02:00:20.699Z,54.15
2022-12-16T02:01:23.221Z,51.39
2022-12-16T02:02:25.819Z,44.93
2022-12-16T06:07:35.544Z,95.94
2022-12-16T06:08:38.487Z,115.45
2022-12-16T06:09:40.424Z,132.34
2022-12-16T06:10:42.428Z,109.90
2022-12-16T06:11:44.403Z,112.71
2022-12-16T06:12:49.235Z,116.79
2022-12-16T06:13:51.176Z,123.55
2022-12-16T06:14:53.268Z,118.35
2022-12-16T06:15:55.851Z,114.34
2022-12-16T06:16:58.915Z,122.26
2022-12-16T06:18:00.846Z,100.61
2022-12-16T06:19:03.828Z,98.43
2022-12-16T06:20:08.511Z,101.76
2022-12-16T06:21:10.530Z,97.95
2022-12-16T06:22:12.615Z,103.27
2022-12-16T06:23:15.117Z,100.13
2022-12-16T06:24:17.177Z,95.55
2022-12-16T06:25:19.099Z,97.01
2022-12-16T06:26:21.278Z,134.86
2022-12-16T06:27:23.296Z,101.87
2022-12-16T06:28:25.805Z,122.27
2022-12-16T06:29:27.703Z,85.99
2022-12-16T06:30:29.683Z,109.66
2022-12-16T06:31:32.033Z,92.27
2022-12-16T06:32:34.285Z,100.83
2022-12-16T06:33:36.163Z,89.43
2022-12-16T06:34:38.044Z,81.07
2022-12-16T06:35:40.410Z,105.71
2022-12-16T06:36:42.713Z,79.19
2022-12-16T06:37:47.765Z,132.82
2022-12-16T06:38:49.911Z,94.89
2022-12-16T06:39:53.228Z,132.25
2022-12-16T06:40:55.826Z,110.29
2022-12-16T06:41:57.985Z,103.23
2022-12-16T06:43:00.259Z,99.35
2022-12-16T06:44:02.173Z,86.73
2022-12-16T06:45:05.360Z,111.69
2022-12-16T06:46:07.749Z,82.84
2022-12-16T06:47:09.819Z,71.49
2022-12-16T06:48:12.021Z,75.29
2022-12-16T06:49:13.897Z,78.81
2022-12-16T06:50:16.191Z,70.59
2022-12-16T06:51:18.081Z,89.06
2022-12-16T06:52:19.948Z,75.39
2022-12-16T06:53:24.159Z,78.08
2022-12-16T06:54:26.064Z,97.16
2022-12-16T06:55:28.724Z,85.69
2022-12-16T06:56:30.765Z,82.35
2022-12-16T06:57:32.637Z,95.63
2022-12-16T06:58:34.514Z,86.24
2022-12-16T06:59:36.651Z,90.86
2022-12-16T07:00:38.682Z,80.24
2022-12-16T07:01:41.566Z,77.93
2022-12-16T07:05:00.415Z,76.75
2022-12-16T07:06:02.769Z,80.89
2022-12-16T07:07:04.657Z,66.13
2022-12-16T07:08:06.525Z,66.61
2022-12-16T07:09:08.574Z,74.69
2022-12-16T07:10:10.875Z,72.48
2022-12-16T07:11:16.892Z,66.50
2022-12-16T07:12:16.926Z,71.12
2022-12-16T07:13:18.948Z,76.27
2022-12-16T15:52:33.490Z,17.32
2022-12-16T15:54:51.106Z,17.14
2022-12-16T15:55:59.485Z,19.91
2022-12-16T15:57:01.094Z,16.84
2022-12-16T15:58:05.035Z,17.57
2022-12-16T15:59:22.580Z,16.89
2022-12-16T16:00:28.128Z,17.23
2022-12-16T16:01:33.890Z,18.07
2022-12-16T16:02:36.123Z,16.58
2022-12-16T16:03:45.142Z,15.26
2022-12-16T16:04:48.049Z,16.42
2022-12-16T16:05:50.148Z,16.24
2022-12-16T16:06:52.715Z,16.39
2022-12-16T16:07:56.846Z,14.48
2022-12-16T16:09:03.446Z,15.78
2022-12-16T16:11:20.750Z,18.52
2022-12-16T16:12:25.173Z,16.07
2022-12-16T16:13:27.411Z,17.06
2022-12-16T16:14:29.309Z,14.54
2022-12-16T16:15:31.285Z,15.79
2022-12-16T16:16:33.807Z,17.21
2022-12-16T18:47:06.258Z,13.71
2022-12-16T18:49:18.547Z,17.42
2022-12-16T18:50:27.222Z,16.75
2022-12-16T18:51:24.560Z,15.02
2022-12-16T18:52:27.149Z,14.59
2022-12-16T18:53:29.825Z,14.83
2022-12-16T18:54:31.705Z,14.09
2022-12-16T18:55:33.831Z,13.48
2022-12-16T18:56:37.315Z,13.15
2022-12-16T18:57:40.022Z,12.91
2022-12-16T18:58:51.257Z,12.46
2022-12-16T18:59:45.952Z,14.29
2022-12-16T19:00:47.968Z,13.47
2022-12-16T19:01:50.485Z,11.96
2022-12-16T19:02:52.885Z,12.65
2022-12-16T19:03:56.510Z,13.15
2022-12-16T19:05:00.871Z,11.64
2022-12-16T19:06:03.155Z,9.93
2022-12-16T19:07:05.046Z,13.45
2022-12-16T19:08:11.219Z,13.11
2022-12-16T19:09:11.195Z,10.67
2022-12-16T19:10:13.638Z,13.24
2022-12-16T19:11:15.515Z,10.98
2022-12-16T19:12:17.424Z,11.66
2022-12-16T19:13:19.303Z,11.73
2022-12-16T19:14:21.188Z,12.61
2022-12-16T19:15:23.507Z,11.69
2022-12-16T19:16:25.965Z,12.93
2022-12-16T19:17:28.102Z,13.09
2022-12-16T19:18:30.120Z,11.74
2022-12-16T19:19:32.134Z,11.25
2022-12-16T19:20:34.111Z,10.59
2022-12-16T19:21:36.012Z,9.47
2022-12-16T19:22:37.965Z,11.72
2022-12-16T19:23:40.652Z,10.90
2022-12-16T19:24:42.853Z,11.23
2022-12-16T19:25:44.924Z,13.10
2022-12-16T19:26:47.565Z,11.69
2022-12-16T19:27:49.776Z,11.81
2022-12-16T19:28:51.739Z,9.88
2022-12-16T19:29:54.735Z,10.83
2022-12-16T19:30:58.403Z,12.19
2022-12-16T19:32:01.895Z,12.43
2022-12-16T19:33:03.929Z,10.98
2022-12-16T19:34:08.790Z,10.79
2022-12-16T19:35:11.535Z,10.31
2022-12-16T19:36:13.504Z,10.15
2022-12-16T19:37:15.393Z,12.30
2022-12-16T19:38:17.271Z,10.05
2022-12-16T19:39:19.256Z,9.85
2022-12-16T19:40:21.352Z,11.95
2022-12-16T19:41:23.533Z,10.69
2022-12-16T19:42:25.603Z,11.40
2022-12-16T19:43:27.490Z,11.59
2022-12-16T19:44:30.797Z,12.04
2022-12-16T19:45:32.778Z,11.24
2022-12-16T19:46:35.350Z,11.76
2022-12-16T19:47:37.340Z,9.08
2022-12-16T19:48:40.066Z,12.44
2022-12-16T19:49:44.452Z,11.47
2022-12-16T19:50:46.467Z,10.71
2022-12-16T19:51:49.635Z,8.55
2022-12-16T19:52:51.732Z,9.51
2022-12-16T19:53:53.648Z,9.67
2022-12-16T19:54:58.476Z,10.99
2022-12-16T19:56:00.592Z,11.64
2022-12-16T19:57:02.886Z,10.53
2022-12-16T19:58:05.522Z,10.82
2022-12-16T19:59:07.435Z,11.55
2022-12-16T20:00:11.951Z,10.01
2022-12-16T20:01:14.510Z,9.59
2022-12-16T20:02:17.022Z,10.44
2022-12-16T20:03:19.516Z,8.87
2022-12-16T20:04:21.589Z,10.61
2022-12-16T20:05:23.669Z,11.05
2022-12-16T20:06:26.029Z,11.66
2022-12-16T20:07:28.171Z,12.26
2022-12-16T20:08:30.468Z,9.94
2022-12-16T20:09:32.383Z,11.71
2022-12-16T20:10:36.153Z,13.42
2022-12-16T20:11:38.785Z,12.23
2022-12-16T20:12:40.716Z,10.77
2022-12-16T20:13:42.612Z,8.62
2022-12-16T20:14:44.967Z,13.01
2022-12-16T20:15:46.892Z,9.79
2022-12-16T20:16:48.992Z,10.01
2022-12-16T20:17:51.736Z,10.83
2022-12-16T20:18:55.434Z,10.88
2022-12-16T20:19:58.167Z,11.36
2022-12-16T20:21:02.752Z,10.18
2022-12-16T20:22:07.478Z,11.82
2022-12-16T20:23:08.693Z,11.97
2022-12-16T20:24:11.539Z,13.54
2022-12-16T20:25:13.608Z,14.35
2022-12-16T20:26:15.625Z,11.44
2022-12-16T20:27:17.761Z,9.97
2022-12-16T20:28:24.771Z,11.62
2022-12-16T20:29:23.559Z,11.38
2022-12-16T20:30:25.686Z,13.66
2022-12-16T20:31:28.678Z,12.67
2022-12-16T20:32:30.572Z,12.36
2022-12-16T20:33:32.783Z,12.26
2022-12-16T20:34:34.771Z,10.59
2022-12-16T20:35:36.666Z,10.87
2022-12-16T20:36:38.785Z,13.03
2022-12-16T20:37:40.696Z,11.37
2022-12-16T20:38:42.739Z,12.41
2022-12-16T20:39:49.519Z,12.69
2022-12-16T20:41:03.235Z,13.23
2022-12-16T20:42:05.336Z,12.51
2022-12-16T20:43:12.060Z,12.45
2022-12-16T20:44:14.646Z,12.49
2022-12-16T20:45:18.055Z,12.43
2022-12-16T20:46:20.220Z,13.43
2022-12-16T20:47:22.112Z,12.14
2022-12-16T20:48:24.117Z,14.04
2022-12-16T20:49:26.068Z,15.05
2022-12-16T20:50:28.274Z,13.85
2022-12-16T20:51:30.224Z,16.82
2022-12-16T20:52:32.109Z,15.29
2022-12-16T20:53:34.098Z,13.97
2022-12-16T20:54:36.146Z,14.62
2022-12-16T20:55:38.637Z,12.59
2022-12-16T20:56:41.232Z,13.73
2022-12-16T20:57:44.421Z,15.40
2022-12-16T20:58:49.783Z,14.87
2022-12-16T20:59:51.755Z,14.66
2022-12-16T21:00:56.400Z,14.38
2022-12-16T21:03:07.732Z,13.22
2022-12-16T21:04:11.895Z,16.02
2022-12-16T21:05:14.083Z,17.02
2022-12-16T21:06:17.557Z,17.43
2022-12-16T21:07:19.749Z,18.67
2022-12-16T21:08:21.933Z,20.03
2022-12-16T21:09:24.355Z,16.87
2022-12-16T21:10:26.979Z,18.05
2022-12-16T21:11:29.159Z,20.59
2022-12-16T21:12:32.916Z,18.59
2022-12-16T21:13:34.824Z,14.31
2022-12-16T21:14:36.731Z,16.69
2022-12-16T21:15:38.806Z,16.77
2022-12-16T21:16:42.089Z,15.29
2022-12-16T21:17:44.229Z,12.60
2022-12-16T21:18:46.306Z,16.80
2022-12-16T21:19:48.940Z,13.53
2022-12-16T21:20:53.590Z,13.86
2022-12-16T21:21:57.529Z,12.96
2022-12-16T21:23:08.229Z,14.06
2022-12-16T21:24:10.308Z,11.77
2022-12-16T21:25:12.296Z,13.41
2022-12-16T21:26:14.330Z,14.69
2022-12-16T21:27:16.338Z,14.91
2022-12-16T21:28:18.220Z,12.89
2022-12-16T21:29:20.097Z,12.71
2022-12-16T21:30:22.318Z,12.87
2022-12-16T21:31:24.317Z,13.25
2022-12-16T21:32:26.288Z,14.86
2022-12-16T21:33:28.698Z,13.48
2022-12-16T21:34:31.234Z,14.82
2022-12-16T21:35:33.140Z,14.93
2022-12-16T21:36:35.342Z,15.29
2022-12-16T21:37:37.214Z,15.65
2022-12-16T21:38:39.116Z,15.98
2022-12-16T21:39:41.132Z,16.88
2022-12-16T21:40:51.104Z,14.49
2022-12-16T21:41:54.740Z,13.83
2022-12-16T21:42:58.717Z,16.33
2022-12-16T21:44:00.611Z,20.15
2022-12-16T21:45:02.973Z,17.10
2022-12-16T21:46:05.155Z,15.43
2022-12-16T21:47:07.031Z,16.05
2022-12-16T21:48:12.987Z,15.75
2022-12-16T21:49:17.642Z,16.19
2022-12-16T21:50:20.011Z,17.45
2022-12-16T21:51:22.191Z,16.79
2022-12-16T21:52:24.076Z,16.21
2022-12-16T21:53:26.051Z,15.92
2022-12-16T21:54:28.424Z,17.84
2022-12-16T21:55:30.303Z,19.21
2022-12-16T21:56:32.491Z,16.63
2022-12-16T21:57:34.393Z,16.97
2022-12-16T21:58:36.372Z,20.35
2022-12-16T21:59:38.342Z,20.03
2022-12-16T22:00:40.457Z,18.78
2022-12-16T22:01:42.538Z,13.71
2022-12-16T22:02:44.690Z,15.55
2022-12-16T22:03:46.811Z,12.39
2022-12-16T22:04:48.858Z,13.73
2022-12-16T22:05:50.729Z,14.69
2022-12-16T22:06:52.892Z,14.39
2022-12-16T22:07:56.191Z,15.18
2022-12-16T22:08:58.288Z,14.59
2022-12-16T22:10:00.194Z,11.79
2022-12-16T22:11:13.204Z,11.87
2022-12-16T22:12:15.240Z,13.23
2022-12-16T22:13:17.164Z,12.25
2022-12-16T22:14:19.047Z,14.29
2022-12-16T22:15:21.299Z,13.56
2022-12-16T22:16:23.708Z,13.43
2022-12-16T22:17:25.784Z,14.94
2022-12-16T22:18:27.813Z,12.67
2022-12-16T22:19:29.902Z,14.44
2022-12-16T22:20:34.015Z,15.03
2022-12-16T22:21:36.027Z,12.05
2022-12-16T22:22:38.019Z,15.77
2022-12-16T22:23:40.524Z,14.47
2022-12-16T22:24:42.880Z,14.64
2022-12-16T22:25:45.415Z,13.94
2022-12-16T22:26:47.511Z,13.91
2022-12-16T22:27:49.391Z,16.25
2022-12-16T22:28:52.101Z,13.41
2022-12-16T22:29:54.011Z,15.86
2022-12-16T22:30:58.188Z,14.64
2022-12-16T22:32:00.541Z,13.85
2022-12-16T22:33:02.616Z,15.67
2022-12-16T22:34:04.524Z,13.75
2022-12-16T22:35:07.496Z,14.53
2022-12-16T22:36:10.202Z,17.72
2022-12-16T22:36:21.729Z,16.11
2022-12-16T22:37:12.098Z,12.66
2022-12-16T22:38:13.982Z,13.47
2022-12-16T22:39:15.911Z,16.81
2022-12-16T22:40:20.947Z,18.68
2022-12-16T22:41:22.859Z,11.38
2022-12-16T22:42:25.259Z,15.45
2022-12-16T22:43:29.006Z,12.13
2022-12-16T22:44:30.947Z,15.59
2022-12-16T22:45:32.836Z,20.16
2022-12-16T22:46:35.185Z,18.34
2022-12-16T22:47:37.170Z,14.96
2022-12-16T22:48:39.319Z,13.00
2022-12-16T22:49:41.265Z,14.19
2022-12-16T22:50:43.695Z,14.63
2022-12-16T22:51:46.329Z,17.07
2022-12-16T22:52:48.429Z,16.94
2022-12-16T22:53:50.391Z,15.72
2022-12-16T22:54:52.284Z,15.42
2022-12-16T22:56:01.660Z,17.91
2022-12-16T22:56:59.716Z,17.94
2022-12-16T22:58:10.658Z,15.81
2022-12-16T22:59:12.620Z,16.38
2022-12-16T23:00:16.383Z,15.07
2022-12-16T23:01:18.298Z,14.56
2022-12-16T23:02:20.207Z,14.93
2022-12-16T23:03:23.436Z,16.22
2022-12-16T23:04:25.354Z,15.87
2022-12-16T23:05:28.207Z,15.78
2022-12-16T23:06:30.367Z,18.55
2022-12-16T23:07:32.256Z,16.58
2022-12-16T23:08:34.267Z,14.53
2022-12-16T23:09:37.238Z,19.49
2022-12-16T23:10:41.337Z,20.81
2022-12-16T23:11:43.937Z,15.77
2022-12-16T23:12:45.970Z,18.33
2022-12-16T23:13:48.159Z,16.73
2022-12-16T23:14:55.082Z,17.31
2022-12-16T23:16:00.335Z,16.67
2022-12-16T23:17:02.923Z,17.71
2022-12-16T23:18:04.803Z,25.53
2022-12-16T23:19:06.781Z,28.23
2022-12-16T23:20:10.286Z,19.44
2022-12-16T23:21:17.942Z,20.96
2022-12-16T23:22:19.853Z,23.09
2022-12-16T23:23:21.737Z,18.95
2022-12-16T23:24:23.784Z,36.21
2022-12-16T23:25:25.992Z,19.95
2022-12-16T23:26:27.986Z,17.77
2022-12-16T23:27:31.979Z,25.38
2022-12-16T23:28:34.483Z,20.64
2022-12-16T23:29:36.466Z,19.02
2022-12-16T23:30:38.433Z,26.57
2022-12-16T23:31:40.395Z,18.67
2022-12-16T23:32:42.408Z,20.37
2022-12-16T23:33:44.534Z,16.29
2022-12-16T23:34:46.519Z,28.10
2022-12-16T23:35:48.605Z,18.85
2022-12-16T23:36:51.543Z,20.24
2022-12-16T23:38:04.141Z,18.19
2022-12-16T23:39:06.278Z,27.14
2022-12-16T23:40:10.297Z,20.89
2022-12-16T23:41:12.519Z,21.64
2022-12-16T23:42:14.396Z,22.42
2022-12-16T23:43:16.337Z,23.39
2022-12-16T23:44:18.225Z,20.36
2022-12-16T23:45:20.133Z,26.18
2022-12-16T23:46:22.240Z,20.05
2022-12-16T23:47:24.298Z,28.17
2022-12-16T23:48:26.842Z,20.97
2022-12-16T23:49:28.854Z,22.37
2022-12-16T23:50:30.817Z,27.53
2022-12-16T23:51:32.722Z,20.29
2022-12-16T23:52:34.723Z,22.51
2022-12-16T23:53:37.489Z,23.71
2022-12-16T23:54:40.998Z,22.96
2022-12-16T23:55:42.909Z,22.37
2022-12-16T23:56:45.066Z,28.49
2022-12-16T23:57:46.934Z,26.59
2022-12-16T23:58:49.349Z,27.42
2022-12-16T23:59:51.229Z,19.95
